Time;durP1;ratioP1;P1;durP2;ratioP2;P2;SDS_P1;SDS_P2;PMS_P1;PMS_P2;Temp;Humidity;BMP_temperature;BMP_pressure;BME280_temperature;BME280_humidity;BME280_pressure;Samples;Min_cycle;Max_cycle;Signal;HPM_P1;HPM_P2
2021/10/12 00:01:00;;;;;;;13.00;7.18;;;10.40;99.90;;;;;;5016271;28;20032;-86
2021/10/12 00:03:26;;;;;;;9.30;6.20;;;10.40;99.90;;;;;;5016153;28;20481;-86
2021/10/12 00:05:52;;;;;;;10.52;6.93;;;10.40;99.90;;;;;;5015936;28;20415;-86
2021/10/12 00:08:18;;;;;;;10.80;7.53;;;10.40;99.90;;;;;;5015898;28;20025;-86
2021/10/12 00:10:43;;;;;;;12.55;7.13;;;10.40;99.90;;;;;;5015970;28;20030;-86
2021/10/12 00:13:10;;;;;;;10.68;7.00;;;10.40;99.90;;;;;;5015838;28;20420;-86
2021/10/12 00:15:35;;;;;;;10.90;7.53;;;10.20;99.90;;;;;;5015815;28;20082;-86
2021/10/12 00:18:01;;;;;;;13.02;8.00;;;10.10;99.90;;;;;;5015710;28;20077;-86
2021/10/12 00:20:27;;;;;;;11.38;7.15;;;10.10;99.90;;;;;;5033415;28;20040;-86
2021/10/12 00:22:52;;;;;;;11.68;6.80;;;10.20;99.90;;;;;;5015907;28;20017;-86
2021/10/12 00:25:18;;;;;;;10.63;6.75;;;10.20;99.90;;;;;;5015654;28;20021;-85
2021/10/12 00:27:44;;;;;;;14.05;7.88;;;10.40;99.90;;;;;;5015600;28;20025;-86
2021/10/12 00:30:10;;;;;;;14.35;7.53;;;10.20;99.90;;;;;;5015536;28;20040;-86
2021/10/12 00:32:36;;;;;;;12.93;7.47;;;10.00;99.90;;;;;;5015576;28;20485;-86
2021/10/12 00:35:02;;;;;;;10.93;6.95;;;9.90;99.90;;;;;;5015466;28;20026;-86
2021/10/12 00:37:28;;;;;;;11.43;7.00;;;9.80;99.90;;;;;;5015568;28;20079;-86
2021/10/12 00:39:54;;;;;;;12.27;7.97;;;9.70;99.90;;;;;;5015579;28;20389;-86
2021/10/12 00:42:20;;;;;;;11.55;7.47;;;9.80;99.90;;;;;;5015790;28;20064;-86
2021/10/12 00:44:46;;;;;;;11.32;6.50;;;9.90;99.90;;;;;;5015437;28;20078;-86
2021/10/12 00:47:11;;;;;;;9.73;6.38;;;10.10;99.90;;;;;;5015399;28;20017;-86
2021/10/12 00:49:37;;;;;;;12.73;7.38;;;10.30;99.90;;;;;;5015310;28;20032;-86
2021/10/12 00:52:04;;;;;;;11.07;6.47;;;10.40;99.90;;;;;;5033115;28;20087;-86
2021/10/12 00:54:29;;;;;;;13.10;7.30;;;10.40;99.90;;;;;;5015220;28;20046;-86
2021/10/12 00:56:55;;;;;;;10.32;6.78;;;10.20;99.90;;;;;;5015348;28;20504;-86
2021/10/12 00:59:21;;;;;;;10.48;6.82;;;10.20;99.90;;;;;;5033206;28;20064;-86
2021/10/12 01:01:47;;;;;;;11.30;6.55;;;10.20;99.90;;;;;;5015266;28;20105;-86
2021/10/12 01:04:12;;;;;;;10.27;7.18;;;10.30;99.90;;;;;;5015310;28;20113;-86
2021/10/12 01:06:38;;;;;;;13.30;7.07;;;10.40;99.90;;;;;;5015257;28;20495;-86
2021/10/12 01:09:04;;;;;;;9.68;6.63;;;10.30;99.90;;;;;;5016009;28;20039;-86
2021/10/12 01:11:33;;;;;;;11.48;6.65;;;10.00;99.90;;;;;;5017685;28;20040;-85
2021/10/12 01:14:01;;;;;;;11.20;6.50;;;9.90;99.90;;;;;;5019125;28;20056;-86
2021/10/12 01:16:27;;;;;;;11.82;6.75;;;10.10;99.90;;;;;;5036790;28;20068;-86
2021/10/12 01:18:56;;;;;;;13.00;6.72;;;10.00;99.90;;;;;;5018966;28;20054;-85
2021/10/12 01:21:23;;;;;;;13.63;7.60;;;9.90;99.90;;;;;;5018952;28;20029;-86
2021/10/12 01:23:49;;;;;;;10.38;5.90;;;9.70;99.90;;;;;;5018966;28;20029;-86
2021/10/12 01:26:15;;;;;;;9.40;6.43;;;9.70;99.90;;;;;;5018894;28;20477;-86
2021/10/12 01:28:41;;;;;;;11.27;7.03;;;9.80;99.90;;;;;;5018954;28;20033;-86
2021/10/12 01:31:12;;;;;;;9.43;6.55;;;9.80;99.90;;;;;;5018883;28;20048;-86
2021/10/12 01:33:38;;;;;;;11.82;7.07;;;10.00;99.90;;;;;;5018864;28;20499;-85
2021/10/12 01:36:04;;;;;;;11.52;7.10;;;10.00;99.90;;;;;;5018771;28;20112;-86
2021/10/12 01:38:35;;;;;;;8.43;6.38;;;10.00;99.90;;;;;;5018576;28;20029;-86
2021/10/12 01:41:01;;;;;;;8.73;6.10;;;10.00;99.90;;;;;;5018588;28;20091;-86
2021/10/12 01:43:27;;;;;;;9.88;6.28;;;10.00;99.90;;;;;;5018602;28;20473;-85
2021/10/12 01:46:01;;;;;;;11.43;7.40;;;10.00;99.90;;;;;;5018546;28;20060;-86
2021/10/12 01:48:27;;;;;;;10.10;6.93;;;10.10;99.90;;;;;;5018507;28;20071;-85
2021/10/12 01:50:53;;;;;;;9.35;6.57;;;10.30;99.90;;;;;;5036219;28;20033;-86
2021/10/12 01:53:18;;;;;;;8.57;6.75;;;10.30;99.90;;;;;;5036163;28;20025;-86
2021/10/12 01:55:44;;;;;;;11.75;6.47;;;10.30;99.90;;;;;;5018200;28;20072;-85
2021/10/12 01:58:10;;;;;;;15.98;8.05;;;10.20;99.90;;;;;;5018295;28;20034;-85
2021/10/12 02:00:36;;;;;;;13.30;7.88;;;10.10;99.90;;;;;;5018291;28;20025;-85
2021/10/12 02:03:01;;;;;;;13.75;8.32;;;9.70;99.90;;;;;;5018761;28;20026;-86
2021/10/12 02:05:27;;;;;;;12.57;7.75;;;9.50;99.90;;;;;;5036006;28;20021;-86
2021/10/12 02:07:53;;;;;;;11.23;7.32;;;9.30;99.90;;;;;;5018140;28;20025;-86
2021/10/12 02:10:18;;;;;;;11.65;8.00;;;9.20;99.90;;;;;;5018177;28;20029;-86
2021/10/12 02:12:46;;;;;;;9.48;6.70;;;9.20;99.90;;;;;;5018061;28;20025;-86
2021/10/12 02:15:12;;;;;;;13.48;7.85;;;9.40;99.90;;;;;;5018283;28;20021;-86
2021/10/12 02:17:38;;;;;;;14.80;7.45;;;9.70;99.90;;;;;;5018064;28;20052;-86
2021/10/12 02:20:06;;;;;;;11.68;7.43;;;9.60;99.90;;;;;;5017841;28;20072;-86
2021/10/12 02:22:32;;;;;;;9.77;7.30;;;9.60;99.90;;;;;;5017779;28;20485;-86
2021/10/12 02:24:58;;;;;;;11.35;7.43;;;9.60;99.90;;;;;;5017848;28;20025;-86
2021/10/12 02:27:23;;;;;;;11.02;7.25;;;9.60;99.90;;;;;;5017771;28;20036;-86
2021/10/12 02:29:49;;;;;;;13.43;7.80;;;9.70;99.90;;;;;;5035509;28;20097;-86
2021/10/12 02:32:17;;;;;;;13.00;7.97;;;9.40;99.90;;;;;;5017691;28;20141;-86
2021/10/12 02:34:42;;;;;;;12.85;7.78;;;9.40;99.90;;;;;;5017610;28;20022;-86
2021/10/12 02:37:08;;;;;;;12.20;7.72;;;9.40;99.90;;;;;;5017579;28;20079;-85
2021/10/12 02:39:34;;;;;;;9.73;7.50;;;9.50;99.90;;;;;;5017340;28;20025;-86
2021/10/12 02:41:59;;;;;;;10.70;6.68;;;9.50;99.90;;;;;;5018585;28;20075;-86
2021/10/12 02:44:25;;;;;;;15.25;8.02;;;9.60;99.90;;;;;;5017442;28;20029;-86
2021/10/12 02:46:52;;;;;;;13.02;8.00;;;9.40;99.90;;;;;;5017428;28;20476;-86
2021/10/12 02:49:17;;;;;;;10.93;6.57;;;9.50;99.90;;;;;;5017400;28;20064;-86
2021/10/12 02:51:43;;;;;;;13.05;8.05;;;9.60;99.90;;;;;;5035028;28;20049;-86
2021/10/12 02:54:09;;;;;;;18.17;8.15;;;9.40;99.90;;;;;;5016956;28;20397;-86
2021/10/12 02:56:35;;;;;;;13.38;7.90;;;9.30;99.90;;;;;;5017216;28;20500;-86
2021/10/12 02:59:01;;;;;;;12.90;7.80;;;9.50;99.90;;;;;;5017057;28;20034;-86
2021/10/12 03:01:27;;;;;;;9.95;7.35;;;9.50;99.90;;;;;;5017128;28;20029;-86
2021/10/12 03:03:53;;;;;;;15.57;7.88;;;9.50;99.90;;;;;;5017037;28;20025;-86
2021/10/12 03:06:18;;;;;;;12.55;8.40;;;9.60;99.90;;;;;;5017072;28;20022;-86
2021/10/12 03:08:44;;;;;;;16.02;8.15;;;9.60;99.90;;;;;;5017038;28;20026;-85
2021/10/12 03:11:10;;;;;;;12.60;7.30;;;9.60;99.90;;;;;;5034755;28;20436;-86
2021/10/12 03:13:35;;;;;;;11.23;7.88;;;9.80;99.90;;;;;;5016883;28;20103;-86
2021/10/12 03:16:01;;;;;;;11.95;7.65;;;9.80;99.90;;;;;;5034668;28;20500;-85
2021/10/12 03:18:30;;;;;;;11.50;7.95;;;9.70;99.90;;;;;;5017062;28;20049;-85
2021/10/12 03:20:56;;;;;;;16.27;8.80;;;9.60;99.90;;;;;;5016837;28;20495;-86
2021/10/12 03:23:22;;;;;;;9.50;6.50;;;9.40;99.90;;;;;;5016734;28;20125;-86
2021/10/12 03:25:48;;;;;;;16.02;8.90;;;9.50;99.90;;;;;;5016795;28;20053;-86
2021/10/12 03:28:13;;;;;;;15.98;8.52;;;9.60;99.90;;;;;;5016655;28;20116;-86
2021/10/12 03:30:39;;;;;;;13.07;8.40;;;9.70;99.90;;;;;;5016640;28;20033;-86
2021/10/12 03:33:05;;;;;;;15.27;9.32;;;9.80;99.90;;;;;;5015844;28;20393;-86
2021/10/12 03:35:34;;;;;;;12.13;8.98;;;9.60;99.90;;;;;;5016466;28;20036;-86
2021/10/12 03:38:00;;;;;;;12.85;8.90;;;9.60;99.90;;;;;;5016339;28;20022;-86
2021/10/12 03:40:26;;;;;;;17.55;8.82;;;9.60;99.90;;;;;;5017215;28;20021;-86
2021/10/12 03:42:53;;;;;;;14.23;7.90;;;9.80;99.90;;;;;;5034322;28;20025;-86
2021/10/12 03:45:19;;;;;;;15.70;7.93;;;9.90;99.90;;;;;;5016457;28;20036;-86
2021/10/12 03:47:45;;;;;;;11.73;8.05;;;10.00;99.90;;;;;;5016292;28;20021;-86
2021/10/12 03:50:10;;;;;;;12.95;8.50;;;10.10;99.90;;;;;;5016283;28;20033;-86
2021/10/12 03:52:36;;;;;;;14.88;8.85;;;9.90;99.90;;;;;;5016165;28;20355;-85
2021/10/12 03:55:02;;;;;;;11.27;7.65;;;10.00;99.90;;;;;;5015976;28;20049;-85
2021/10/12 03:57:28;;;;;;;13.02;8.23;;;10.00;99.90;;;;;;5016039;28;20036;-86
2021/10/12 03:59:54;;;;;;;14.93;8.90;;;10.00;99.90;;;;;;5016040;28;20392;-86
2021/10/12 04:02:19;;;;;;;11.43;7.93;;;10.00;99.90;;;;;;5016070;28;20026;-86
2021/10/12 04:04:45;;;;;;;14.75;8.40;;;9.90;99.90;;;;;;5016283;28;20021;-86
2021/10/12 04:07:11;;;;;;;13.70;8.15;;;9.80;99.90;;;;;;5015863;28;20052;-86
2021/10/12 04:09:37;;;;;;;14.27;9.60;;;9.80;99.90;;;;;;5033601;28;20029;-86
2021/10/12 04:12:03;;;;;;;12.77;8.30;;;9.90;99.90;;;;;;5015924;28;20485;-86
2021/10/12 04:14:29;;;;;;;9.25;7.45;;;9.80;99.90;;;;;;5016761;28;20116;-85
2021/10/12 04:16:54;;;;;;;13.30;9.13;;;9.80;99.90;;;;;;5015892;28;20426;-86
2021/10/12 04:19:20;;;;;;;16.38;9.63;;;9.80;99.90;;;;;;5033431;28;20033;-85
2021/10/12 04:21:46;;;;;;;15.52;7.82;;;9.90;99.90;;;;;;5015835;28;20021;-86
2021/10/12 04:24:11;;;;;;;15.13;8.93;;;9.90;99.90;;;;;;5015645;28;20032;-86
2021/10/12 04:26:39;;;;;;;11.55;7.57;;;9.80;99.90;;;;;;5016116;28;20103;-86
2021/10/12 04:29:05;;;;;;;14.82;8.63;;;9.80;99.90;;;;;;5015718;28;20117;-86
2021/10/12 04:31:32;;;;;;;16.77;10.55;;;9.70;99.90;;;;;;5015708;28;20048;-85
2021/10/12 04:33:57;;;;;;;13.35;7.55;;;9.50;99.90;;;;;;5015595;28;20393;-86
2021/10/12 04:36:23;;;;;;;18.65;9.13;;;9.60;99.90;;;;;;5015624;28;20021;-86
2021/10/12 04:38:49;;;;;;;18.45;6.90;;;9.60;99.90;;;;;;5015385;28;20481;-86
2021/10/12 04:41:15;;;;;;;11.50;7.95;;;9.60;99.90;;;;;;5015507;28;20025;-86
2021/10/12 04:43:41;;;;;;;15.02;8.52;;;9.70;99.90;;;;;;5015764;28;20036;-86
2021/10/12 04:46:07;;;;;;;14.32;8.27;;;9.70;99.90;;;;;;5015329;28;20355;-86
2021/10/12 04:48:33;;;;;;;10.98;6.95;;;9.60;99.90;;;;;;5015386;28;20025;-86
2021/10/12 04:50:59;;;;;;;15.30;8.38;;;9.80;99.90;;;;;;5015288;28;20022;-86
2021/10/12 04:53:25;;;;;;;14.40;8.60;;;9.80;99.90;;;;;;5015191;28;20032;-86
2021/10/12 04:55:51;;;;;;;12.23;7.70;;;9.70;99.90;;;;;;5015239;28;20400;-86
2021/10/12 04:58:17;;;;;;;14.70;8.13;;;9.70;99.90;;;;;;5015237;28;20025;-86
2021/10/12 05:00:43;;;;;;;12.52;7.55;;;9.60;99.90;;;;;;5015311;28;20021;-86
2021/10/12 05:03:09;;;;;;;13.23;7.90;;;9.40;99.90;;;;;;5032976;28;20018;-86
2021/10/12 05:05:34;;;;;;;14.00;8.65;;;9.30;99.90;;;;;;5015331;28;20441;-86
2021/10/12 05:08:01;;;;;;;13.77;7.15;;;9.40;99.90;;;;;;5015221;28;20021;-86
2021/10/12 05:10:27;;;;;;;13.93;8.00;;;9.40;99.90;;;;;;5015378;28;20140;-86
2021/10/12 05:12:52;;;;;;;12.00;6.57;;;9.40;99.90;;;;;;5015618;28;20138;-86
2021/10/12 05:15:24;;;;;;;16.35;7.57;;;9.30;99.90;;;;;;5032944;28;20385;-87
2021/10/12 05:17:50;;;;;;;17.38;8.88;;;9.40;99.90;;;;;;5015290;28;20022;-87
2021/10/12 05:20:17;;;;;;;11.82;7.45;;;9.30;99.90;;;;;;5015047;28;20025;-87
2021/10/12 05:22:44;;;;;;;15.57;8.40;;;9.40;99.90;;;;;;5015097;28;20037;-87
2021/10/12 05:25:10;;;;;;;10.05;7.10;;;9.50;99.90;;;;;;5015140;28;20160;-87
2021/10/12 05:27:37;;;;;;;12.80;7.38;;;9.60;99.90;;;;;;5015181;28;20022;-88
2021/10/12 05:30:05;;;;;;;12.27;7.82;;;9.90;99.90;;;;;;5015151;28;20120;-89
2021/10/12 05:32:31;;;;;;;15.27;7.88;;;9.80;99.90;;;;;;5015484;28;20124;-90
2021/10/12 05:34:58;;;;;;;12.23;8.40;;;9.70;99.90;;;;;;5015233;28;20123;-91
2021/10/12 05:37:24;;;;;;;12.77;7.95;;;9.50;99.90;;;;;;5015963;28;20029;-91
2021/10/12 05:39:50;;;;;;;12.40;7.68;;;9.50;99.90;;;;;;5032773;28;20033;-91
2021/10/12 05:42:16;;;;;;;11.90;6.70;;;9.60;99.90;;;;;;5033673;28;20076;-90
2021/10/12 05:44:42;;;;;;;14.63;7.97;;;9.70;99.90;;;;;;5016954;28;20473;-92
2021/10/12 05:47:08;;;;;;;11.10;6.82;;;9.60;99.90;;;;;;5016665;28;20025;-92
2021/10/12 05:49:36;;;;;;;13.38;6.22;;;9.70;99.90;;;;;;5016083;28;20083;-91
2021/10/12 05:52:03;;;;;;;13.55;7.68;;;9.90;99.90;;;;;;5016762;28;20040;-91
2021/10/12 05:54:31;;;;;;;12.10;7.18;;;9.90;99.90;;;;;;5015741;28;20390;-91
2021/10/12 05:57:04;;;;;;;14.55;7.68;;;9.70;99.90;;;;;;5017560;28;20025;-92
2021/10/12 05:59:29;;;;;;;11.95;7.43;;;9.70;99.90;;;;;;5020275;28;20029;-92
2021/10/12 06:01:55;;;;;;;11.32;6.97;;;9.70;99.90;;;;;;5020489;28;20508;-92
2021/10/12 06:04:21;;;;;;;14.38;8.40;;;9.70;99.90;;;;;;5019875;28;20032;-92
2021/10/12 06:06:46;;;;;;;16.88;8.82;;;9.70;99.90;;;;;;5019959;28;20088;-92
2021/10/12 06:09:12;;;;;;;13.13;7.75;;;9.60;99.90;;;;;;5020243;28;20109;-92
2021/10/12 06:11:38;;;;;;;22.52;8.85;;;9.50;99.90;;;;;;5019653;28;20388;-92
2021/10/12 06:14:04;;;;;;;17.38;9.63;;;9.50;99.90;;;;;;5020444;28;20025;-93
2021/10/12 06:16:30;;;;;;;18.25;8.50;;;9.40;99.90;;;;;;5036379;28;20037;-92
2021/10/12 06:18:55;;;;;;;14.50;10.05;;;9.40;99.90;;;;;;5019524;28;20113;-92
2021/10/12 06:21:21;;;;;;;18.08;10.02;;;9.40;99.90;;;;;;5019579;28;20523;-92
2021/10/12 06:23:47;;;;;;;12.02;7.68;;;9.40;99.90;;;;;;5019620;28;20025;-92
2021/10/12 06:26:13;;;;;;;17.90;9.73;;;9.50;99.90;;;;;;5019157;28;20389;-92
2021/10/12 06:28:38;;;;;;;15.02;10.32;;;9.50;99.90;;;;;;5019503;28;20140;-92
2021/10/12 06:31:06;;;;;;;16.35;8.77;;;9.50;99.90;;;;;;5019884;28;20025;-92
2021/10/12 06:33:33;;;;;;;14.50;9.00;;;9.40;99.90;;;;;;5019360;28;20084;-91
2021/10/12 06:35:58;;;;;;;13.15;8.63;;;9.50;99.90;;;;;;5019889;28;20028;-93
2021/10/12 06:38:24;;;;;;;18.58;10.57;;;9.60;99.90;;;;;;5019046;28;20021;-92
2021/10/12 06:40:50;;;;;;;14.63;9.85;;;9.70;99.90;;;;;;5019419;28;20572;-92
2021/10/12 06:43:16;;;;;;;43.90;23.02;;;9.70;99.90;;;;;;5019474;28;20022;-91
2021/10/12 06:45:41;;;;;;;47.38;27.75;;;9.70;99.90;;;;;;5019057;28;20025;-93
2021/10/12 06:48:07;;;;;;;19.92;13.02;;;9.70;99.90;;;;;;5019361;28;20469;-93
2021/10/12 06:50:33;;;;;;;21.10;13.13;;;9.60;99.90;;;;;;5019497;28;20029;-94
2021/10/12 06:52:59;;;;;;;16.88;9.48;;;9.60;99.90;;;;;;5018523;28;20359;-91
2021/10/12 06:55:26;;;;;;;15.52;9.73;;;9.60;99.90;;;;;;5015496;28;20053;-93
2021/10/12 06:57:51;;;;;;;16.98;9.52;;;9.60;99.90;;;;;;5016138;28;20026;-92
2021/10/12 07:00:18;;;;;;;17.70;9.95;;;9.60;99.90;;;;;;5015165;28;20034;-90
2021/10/12 07:02:45;;;;;;;15.85;9.50;;;9.50;99.90;;;;;;5015334;28;20048;-93
2021/10/12 07:05:13;;;;;;;15.98;10.23;;;9.50;99.90;;;;;;5015215;28;20038;-93
2021/10/12 07:07:39;;;;;;;16.08;8.43;;;9.60;99.90;;;;;;5014804;28;20024;-93
2021/10/12 07:10:07;;;;;;;12.20;8.07;;;9.80;99.90;;;;;;5015524;28;20496;-93
2021/10/12 07:12:33;;;;;;;19.90;8.68;;;10.00;99.90;;;;;;5015558;28;20026;-90
2021/10/12 07:14:59;;;;;;;13.60;8.50;;;10.20;99.90;;;;;;5015407;28;20477;-93
2021/10/12 07:17:25;;;;;;;14.77;8.40;;;10.20;99.90;;;;;;5016209;28;20535;-91
2021/10/12 07:19:51;;;;;;;13.95;8.00;;;10.30;99.90;;;;;;5015704;28;20033;-92
2021/10/12 07:22:21;;;;;;;14.10;8.00;;;10.50;99.90;;;;;;5015148;28;20076;-93
2021/10/12 07:24:47;;;;;;;12.70;7.80;;;10.50;99.90;;;;;;5015418;28;20022;-92
2021/10/12 07:27:13;;;;;;;12.18;8.80;;;10.30;99.90;;;;;;5015837;28;20089;-93
2021/10/12 07:29:39;;;;;;;14.00;9.07;;;10.30;99.90;;;;;;5014939;28;20107;-93
2021/10/12 07:32:06;;;;;;;12.82;6.93;;;10.30;99.90;;;;;;5014737;28;20025;-92
2021/10/12 07:34:32;;;;;;;12.07;7.53;;;10.30;99.90;;;;;;5014570;28;20161;-92
2021/10/12 07:36:58;;;;;;;14.65;7.20;;;10.40;99.90;;;;;;5014782;28;20367;-93
2021/10/12 07:39:24;;;;;;;10.63;6.53;;;10.40;99.90;;;;;;5014639;28;20022;-93
2021/10/12 07:41:50;;;;;;;11.68;6.88;;;10.40;99.90;;;;;;5015022;28;20092;-92
2021/10/12 07:44:15;;;;;;;10.07;6.65;;;10.40;99.90;;;;;;5014905;28;20108;-94
2021/10/12 07:46:41;;;;;;;11.25;6.70;;;10.40;99.90;;;;;;5015255;28;20053;-93
2021/10/12 07:49:07;;;;;;;8.48;6.20;;;10.50;99.90;;;;;;5014431;28;20022;-93
2021/10/12 07:51:33;;;;;;;12.38;6.85;;;10.50;99.90;;;;;;5015096;28;20029;-93
2021/10/12 07:54:01;;;;;;;13.48;7.53;;;10.30;99.90;;;;;;5013792;28;20033;-92
2021/10/12 07:56:36;;;;;;;10.82;6.57;;;10.20;99.90;;;;;;5014050;28;20116;-93
2021/10/12 07:59:07;;;;;;;9.60;6.63;;;10.40;99.90;;;;;;5013880;28;20030;-93
2021/10/12 08:01:34;;;;;;;16.52;6.95;;;10.30;99.90;;;;;;5014328;28;20022;-93
2021/10/12 08:04:02;;;;;;;11.27;7.00;;;10.20;99.90;;;;;;5014046;28;20022;-91
2021/10/12 08:06:28;;;;;;;12.55;7.07;;;10.10;99.90;;;;;;5014035;28;20497;-93
2021/10/12 08:08:54;;;;;;;17.85;7.97;;;10.00;99.90;;;;;;5014226;28;20026;-94
2021/10/12 08:11:25;;;;;;;15.18;7.97;;;10.00;99.90;;;;;;5014876;28;20462;-91
2021/10/12 08:13:55;;;;;;;13.45;7.32;;;10.10;99.90;;;;;;5014812;28;20026;-94
2021/10/12 08:16:26;;;;;;;12.98;6.70;;;10.20;99.90;;;;;;5014026;28;20029;-94
2021/10/12 08:18:52;;;;;;;11.82;6.63;;;10.20;99.90;;;;;;5013666;28;20033;-93
2021/10/12 08:21:18;;;;;;;11.82;5.55;;;10.30;99.90;;;;;;5014012;28;20022;-93
2021/10/12 08:23:44;;;;;;;21.95;12.05;;;10.60;99.90;;;;;;5014479;28;20033;-93
2021/10/12 08:26:09;;;;;;;12.95;6.43;;;10.70;99.90;;;;;;5014442;28;20026;-93
2021/10/12 08:28:35;;;;;;;9.93;5.70;;;10.90;99.90;;;;;;5014277;28;20033;-93
2021/10/12 08:31:01;;;;;;;13.02;5.57;;;11.00;99.90;;;;;;5015228;28;20095;-93
2021/10/12 08:33:27;;;;;;;12.20;5.68;;;11.10;99.90;;;;;;5016931;28;20414;-92
2021/10/12 08:35:52;;;;;;;10.80;5.15;;;11.20;99.90;;;;;;5018188;28;20428;-93
2021/10/12 08:38:19;;;;;;;12.18;6.00;;;11.30;99.90;;;;;;5016211;28;20501;-93
2021/10/12 08:40:46;;;;;;;11.30;5.80;;;11.30;99.90;;;;;;5014889;28;20512;-93
2021/10/12 08:43:13;;;;;;;10.77;5.80;;;11.30;99.90;;;;;;5014683;28;20061;-94
2021/10/12 08:45:40;;;;;;;8.38;5.43;;;11.30;99.90;;;;;;5015035;28;20026;-94
2021/10/12 08:48:06;;;;;;;11.60;4.97;;;11.40;99.90;;;;;;5014723;28;20022;-92
2021/10/12 08:50:33;;;;;;;12.77;5.47;;;11.50;99.90;;;;;;5015374;28;20030;-92
2021/10/12 08:52:59;;;;;;;9.23;5.45;;;11.60;99.90;;;;;;5015757;28;20034;-92
2021/10/12 08:55:28;;;;;;;12.65;6.03;;;11.70;99.90;;;;;;5015285;28;20046;-93
2021/10/12 08:57:54;;;;;;;6.45;4.63;;;11.70;99.90;;;;;;5016165;28;20044;-92
2021/10/12 09:00:21;;;;;;;10.95;5.22;;;11.70;99.90;;;;;;5015685;28;20030;-91
2021/10/12 09:03:19;;;;;;;9.55;4.90;;;11.70;99.90;;;;;;5015971;28;20061;-92
2021/10/12 09:05:54;;;;;;;10.15;5.05;;;11.90;99.90;;;;;;5014315;28;20060;-90
2021/10/12 09:08:27;;;;;;;10.13;5.18;;;11.80;99.90;;;;;;5013470;28;20022;-90
2021/10/12 09:10:54;;;;;;;11.05;5.20;;;11.80;99.90;;;;;;5013221;28;20026;-90
2021/10/12 09:13:20;;;;;;;10.25;4.65;;;11.80;99.90;;;;;;5013876;28;20025;-90
2021/10/12 09:16:06;;;;;;;12.90;4.88;;;11.80;99.90;;;;;;5014145;28;20466;-89
2021/10/12 09:18:52;;;;;;;11.65;4.55;;;11.80;99.90;;;;;;5014119;28;20084;-90
2021/10/12 09:21:26;;;;;;;15.82;4.20;;;11.80;99.90;;;;;;5013103;28;20029;-90
2021/10/12 09:24:05;;;;;;;9.90;4.80;;;11.80;99.90;;;;;;5013937;28;20052;-90
2021/10/12 09:26:34;;;;;;;9.32;4.50;;;11.90;99.90;;;;;;5013981;28;20151;-90
2021/10/12 09:29:17;;;;;;;9.80;4.05;;;11.90;99.90;;;;;;5013865;28;20092;-90
2021/10/12 09:31:45;;;;;;;7.20;4.20;;;12.00;99.90;;;;;;5013769;28;20030;-89
2021/10/12 09:34:13;;;;;;;8.25;4.28;;;12.10;99.90;;;;;;5016852;28;20088;-89
2021/10/12 09:36:47;;;;;;;10.23;4.90;;;12.20;99.90;;;;;;5016966;28;20477;-90
2021/10/12 09:39:33;;;;;;;12.05;4.43;;;12.20;99.90;;;;;;5016674;28;20091;-88
2021/10/12 09:42:08;;;;;;;9.93;4.07;;;12.40;99.90;;;;;;5017296;28;20031;-89
2021/10/12 09:44:34;;;;;;;10.43;4.68;;;12.30;99.90;;;;;;5016769;28;20026;-90
2021/10/12 09:47:12;;;;;;;9.93;4.78;;;12.40;99.90;;;;;;5016405;28;20022;-89
2021/10/12 09:49:39;;;;;;;9.10;4.22;;;12.50;99.90;;;;;;5015725;28;20026;-88
2021/10/12 09:52:07;;;;;;;9.10;4.88;;;12.60;99.90;;;;;;5015621;28;20113;-89
2021/10/12 09:54:38;;;;;;;11.32;6.00;;;12.50;99.90;;;;;;5015829;28;20054;-89
2021/10/12 09:57:08;;;;;;;21.67;9.20;;;12.30;99.90;;;;;;5015571;28;20401;-89
2021/10/12 09:59:34;;;;;;;16.98;7.43;;;12.10;99.90;;;;;;5016022;28;20033;-89
2021/10/12 10:02:01;;;;;;;10.57;5.75;;;11.80;99.90;;;;;;5016284;28;20374;-88
2021/10/12 10:04:29;;;;;;;14.10;5.50;;;11.60;99.90;;;;;;5015624;28;20084;-88
2021/10/12 10:07:06;;;;;;;8.63;4.32;;;11.50;99.90;;;;;;5015302;28;20072;-88
2021/10/12 10:09:35;;;;;;;12.60;5.00;;;11.50;99.90;;;;;;5015670;28;20113;-89
2021/10/12 10:12:01;;;;;;;14.05;6.03;;;11.40;99.90;;;;;;5015549;28;20042;-89
2021/10/12 10:14:27;;;;;;;26.25;9.05;;;11.50;99.90;;;;;;5015384;28;20034;-90
2021/10/12 10:16:57;;;;;;;21.77;7.60;;;11.50;99.90;;;;;;5016237;28;20029;-88
2021/10/12 10:19:30;;;;;;;37.60;11.82;;;11.50;99.90;;;;;;5014962;28;20022;-88
2021/10/12 10:21:56;;;;;;;20.98;6.05;;;11.50;99.90;;;;;;5014976;28;20367;-89
2021/10/12 10:24:37;;;;;;;15.45;5.40;;;11.60;99.90;;;;;;5014704;28;20021;-89
2021/10/12 10:27:05;;;;;;;15.50;5.97;;;11.70;99.90;;;;;;5016027;28;20026;-88
2021/10/12 10:29:38;;;;;;;11.35;4.63;;;11.70;99.90;;;;;;5015257;28;20045;-88
2021/10/12 10:32:22;;;;;;;10.55;4.20;;;11.80;99.90;;;;;;5016028;28;20030;-87
2021/10/12 10:34:59;;;;;;;12.88;5.07;;;11.90;99.90;;;;;;5015277;28;20025;-88
2021/10/12 10:37:28;;;;;;;15.05;4.32;;;12.20;99.90;;;;;;5015427;28;20378;-88
2021/10/12 10:40:27;;;;;;;10.43;3.95;;;12.30;99.90;;;;;;5014373;28;20112;-87
2021/10/12 10:42:58;;;;;;;11.65;4.80;;;12.20;99.90;;;;;;5009218;28;20388;-88
2021/10/12 10:45:40;;;;;;;8.55;3.90;;;12.20;99.90;;;;;;5015904;28;20026;-88
2021/10/12 10:48:06;;;;;;;9.05;3.75;;;11.90;99.90;;;;;;5018097;28;20022;-88
2021/10/12 10:50:35;;;;;;;14.93;4.53;;;11.80;99.90;;;;;;5016585;28;20436;-87
2021/10/12 10:53:03;;;;;;;10.43;3.80;;;11.80;99.90;;;;;;5015260;28;20026;-88
2021/10/12 10:55:31;;;;;;;12.30;4.35;;;11.70;99.90;;;;;;5014919;28;20107;-89
2021/10/12 10:58:07;;;;;;;13.85;4.55;;;11.70;99.90;;;;;;5014833;28;20080;-88
2021/10/12 11:00:45;;;;;;;17.90;5.25;;;12.00;99.90;;;;;;5014903;28;20458;-87
2021/10/12 11:03:32;;;;;;;13.90;4.68;;;12.40;99.90;;;;;;5014601;28;20018;-88
2021/10/12 11:05:59;;;;;;;12.80;3.72;;;12.50;99.90;;;;;;5014149;28;20053;-87
2021/10/12 11:08:29;;;;;;;8.82;4.00;;;12.50;99.90;;;;;;5014598;28;20030;-88
2021/10/12 11:10:57;;;;;;;10.32;3.40;;;12.60;99.90;;;;;;5014313;28;20386;-88
2021/10/12 11:13:36;;;;;;;9.73;4.38;;;12.70;99.90;;;;;;5014128;28;20022;-87
2021/10/12 11:16:05;;;;;;;11.10;4.65;;;12.60;99.90;;;;;;5014862;28;20044;-88
2021/10/12 11:18:31;;;;;;;9.85;4.00;;;12.60;99.90;;;;;;5014072;28;20021;-87
2021/10/12 11:21:04;;;;;;;10.45;4.55;;;12.60;99.90;;;;;;5013841;28;20080;-88
2021/10/12 11:23:33;;;;;;;16.53;4.27;;;12.50;99.90;;;;;;5013871;28;20034;-89
2021/10/12 11:26:03;;;;;;;12.27;3.40;;;12.40;99.90;;;;;;5013797;28;20018;-87
2021/10/12 11:28:32;;;;;;;8.88;3.70;;;12.40;99.90;;;;;;5013625;28;20104;-88
2021/10/12 11:31:03;;;;;;;11.82;3.47;;;12.50;99.90;;;;;;5013581;28;20029;-86
2021/10/12 11:33:35;;;;;;;8.15;2.92;;;12.30;99.90;;;;;;5013896;28;20022;-88
2021/10/12 11:36:03;;;;;;;9.80;3.00;;;12.20;99.90;;;;;;5013505;28;20022;-87
2021/10/12 11:38:37;;;;;;;14.82;5.53;;;12.10;99.90;;;;;;5013288;28;20363;-87
2021/10/12 11:41:31;;;;;;;12.50;3.35;;;11.90;99.90;;;;;;5013486;28;20022;-87
2021/10/12 11:44:02;;;;;;;9.82;3.60;;;11.80;99.90;;;;;;5013427;28;20386;-88
2021/10/12 11:46:34;;;;;;;10.07;3.75;;;11.90;99.90;;;;;;5014757;28;20424;-88
2021/10/12 11:49:11;;;;;;;13.10;3.90;;;12.00;99.90;;;;;;5013353;28;20112;-87
2021/10/12 11:51:39;;;;;;;9.90;4.22;;;12.20;99.90;;;;;;5013229;28;20018;-88
2021/10/12 11:54:05;;;;;;;10.30;3.13;;;12.20;99.90;;;;;;5012493;28;20041;-88
2021/10/12 11:56:33;;;;;;;12.75;3.78;;;12.30;99.90;;;;;;5013201;28;20389;-87
2021/10/12 11:59:00;;;;;;;8.10;3.22;;;12.40;99.90;;;;;;5012945;28;20034;-87
2021/10/12 12:01:32;;;;;;;8.18;2.80;;;12.50;99.90;;;;;;5012982;28;20022;-87
2021/10/12 12:04:03;;;;;;;11.73;3.33;;;12.60;99.90;;;;;;5013005;28;20398;-87
2021/10/12 12:06:31;;;;;;;9.27;2.30;;;12.40;99.90;;;;;;5012953;28;20022;-87
2021/10/12 12:09:01;;;;;;;9.00;2.40;;;12.30;99.90;;;;;;5012817;28;20034;-87
2021/10/12 12:11:29;;;;;;;11.40;3.30;;;12.20;99.90;;;;;;5012792;28;20034;-86
2021/10/12 12:13:57;;;;;;;12.48;4.22;;;12.30;99.90;;;;;;5012800;28;20172;-87
2021/10/12 12:16:24;;;;;;;27.38;12.27;;;12.30;99.90;;;;;;5012796;28;20091;-85
2021/10/12 12:18:51;;;;;;;14.18;4.88;;;12.20;99.90;;;;;;5012847;28;20025;-86
2021/10/12 12:21:31;;;;;;;22.83;7.00;;;12.20;99.90;;;;;;5013994;28;20536;-87
2021/10/12 12:24:00;;;;;;;13.50;4.40;;;12.30;99.90;;;;;;5012657;28;20088;-87
2021/10/12 12:26:28;;;;;;;14.60;6.82;;;12.40;99.90;;;;;;5012542;28;20022;-87
2021/10/12 12:29:22;;;;;;;15.27;8.05;;;12.90;99.90;;;;;;5012484;28;20037;-86
2021/10/12 12:31:53;;;;;;;12.60;4.28;;;13.70;99.90;;;;;;5013860;28;20370;-87
2021/10/12 12:34:33;;;;;;;11.45;4.75;;;14.00;99.90;;;;;;5012539;28;20458;-87
2021/10/12 12:37:01;;;;;;;18.02;5.18;;;14.10;99.90;;;;;;5012476;28;20052;-87
2021/10/12 12:39:45;;;;;;;10.32;3.15;;;13.90;99.90;;;;;;5013511;28;20026;-86
2021/10/12 12:42:38;;;;;;;8.60;4.40;;;13.80;99.90;;;;;;5012529;28;20367;-86
2021/10/12 12:45:07;;;;;;;15.05;4.80;;;13.60;99.90;;;;;;5012383;28;20489;-86
2021/10/12 12:47:33;;;;;;;11.43;3.50;;;13.40;99.90;;;;;;5012242;28;20179;-86